createdAt,value
2019-04-28T00:01:24.007Z,3.70
2019-04-28T00:03:52.279Z,3.70
2019-04-28T00:06:21.194Z,3.83
2019-04-28T00:08:49.523Z,4.00
2019-04-28T00:11:17.833Z,4.30
2019-04-28T00:13:46.151Z,3.10
2019-04-28T00:16:14.427Z,3.80
2019-04-28T00:18:42.683Z,4.20
2019-04-28T00:21:15.379Z,3.67
2019-04-28T00:23:51.285Z,3.40
2019-04-28T00:26:40.820Z,4.13
2019-04-28T00:29:10.985Z,3.90
2019-04-28T00:31:41.190Z,4.20
2019-04-28T00:34:11.293Z,3.80
2019-04-28T00:36:41.191Z,3.90
2019-04-28T00:39:11.080Z,4.20
2019-04-28T00:41:39.505Z,4.17
2019-04-28T00:44:07.761Z,4.00
2019-04-28T00:46:37.281Z,3.70
2019-04-28T00:49:05.608Z,4.13
2019-04-28T00:51:33.867Z,4.30
2019-04-28T00:54:02.201Z,3.73
2019-04-28T00:56:31.699Z,3.93
2019-04-28T00:59:01.655Z,4.50
2019-04-28T01:01:40.736Z,3.80
2019-04-28T01:04:11.822Z,4.17
2019-04-28T01:06:40.225Z,3.50
2019-04-28T01:09:08.639Z,3.90
2019-04-28T01:11:36.979Z,3.90
2019-04-28T01:14:05.298Z,3.60
2019-04-28T01:16:44.172Z,3.20
2019-04-28T01:19:14.067Z,3.57
2019-04-28T01:22:00.329Z,3.40
2019-04-28T01:24:29.727Z,3.37
2019-04-28T01:26:58.046Z,3.20
2019-04-28T01:29:26.319Z,3.37
2019-04-28T01:31:56.238Z,3.33
2019-04-28T01:34:24.780Z,3.50
2019-04-28T01:36:53.033Z,3.23
2019-04-28T01:39:21.297Z,3.00
2019-04-28T01:41:49.710Z,3.30
2019-04-28T01:44:19.687Z,2.90
2019-04-28T01:46:49.613Z,3.30
2019-04-28T01:49:19.659Z,3.50
2019-04-28T01:52:00.901Z,3.40
2019-04-28T01:54:30.237Z,3.27
2019-04-28T01:57:01.080Z,2.97
2019-04-28T01:59:30.235Z,3.40
2019-04-28T02:02:00.105Z,3.47
2019-04-28T02:04:30.034Z,2.77
2019-04-28T02:06:59.871Z,2.87
2019-04-28T02:09:29.642Z,3.13
2019-04-28T02:11:58.197Z,3.10
2019-04-28T02:14:26.465Z,3.63
2019-04-28T02:16:54.717Z,2.50
2019-04-28T02:19:22.996Z,2.47
2019-04-28T02:21:52.899Z,2.87
2019-04-28T02:24:32.051Z,2.60
2019-04-28T02:27:01.044Z,2.40
2019-04-28T02:29:30.273Z,3.00
2019-04-28T02:32:02.167Z,3.00
2019-04-28T02:34:31.081Z,2.53
2019-04-28T02:37:01.401Z,2.90
2019-04-28T02:39:31.296Z,3.57
2019-04-28T02:42:01.317Z,2.80
2019-04-28T02:44:33.476Z,2.70
2019-04-28T02:47:00.785Z,2.80
2019-04-28T02:49:33.079Z,2.83
2019-04-28T02:52:20.621Z,3.17
2019-04-28T02:54:50.829Z,2.77
2019-04-28T02:57:20.640Z,2.87
2019-04-28T02:59:50.915Z,2.63
2019-04-28T03:02:20.790Z,2.13
2019-04-28T03:04:50.621Z,2.90
2019-04-28T03:07:18.218Z,2.27
2019-04-28T03:09:46.477Z,3.00
2019-04-28T03:12:14.749Z,3.53
2019-04-28T03:14:44.140Z,3.53
2019-04-28T03:17:12.589Z,2.83
2019-04-28T03:19:41.716Z,2.63
2019-04-28T03:22:11.654Z,2.60
2019-04-28T03:24:41.288Z,3.10
2019-04-28T03:27:26.400Z,2.33
2019-04-28T03:29:56.302Z,2.40
2019-04-28T03:32:39.681Z,3.40
2019-04-28T03:34:56.230Z,2.93
2019-04-28T03:37:24.647Z,3.43
2019-04-28T03:39:52.970Z,3.33
2019-04-28T03:42:21.969Z,3.27
2019-04-28T03:44:51.227Z,3.50
2019-04-28T03:47:21.031Z,3.60
2019-04-28T03:49:50.720Z,4.37
2019-04-28T03:52:21.185Z,4.23
2019-04-28T03:54:50.803Z,3.37
2019-04-28T03:57:21.512Z,4.60
2019-04-28T03:59:51.232Z,3.63
2019-04-28T04:02:23.008Z,3.30
2019-04-28T04:04:52.147Z,3.60
2019-04-28T04:07:21.591Z,4.80
2019-04-28T04:09:51.715Z,3.80
2019-04-28T04:12:23.235Z,3.83
2019-04-28T04:14:55.887Z,4.57
2019-04-28T04:17:30.526Z,3.63
2019-04-28T04:20:01.560Z,3.37
2019-04-28T04:22:31.225Z,3.90
2019-04-28T04:25:01.129Z,4.00
2019-04-28T04:27:30.834Z,4.50
2019-04-28T04:30:01.583Z,4.30
2019-04-28T04:32:30.429Z,3.83
2019-04-28T04:35:00.709Z,4.40
2019-04-28T04:37:30.825Z,4.23
2019-04-28T04:40:01.161Z,4.00
2019-04-28T04:42:30.642Z,4.60
2019-04-28T04:45:00.539Z,5.43
2019-04-28T04:47:32.535Z,4.30
2019-04-28T04:50:00.229Z,3.90
2019-04-28T04:52:30.473Z,4.50
2019-04-28T04:55:01.041Z,4.47
2019-04-28T04:57:32.435Z,5.17
2019-04-28T05:00:00.062Z,4.03
2019-04-28T05:02:52.037Z,4.87
2019-04-28T05:05:19.989Z,4.20
2019-04-28T05:07:48.276Z,5.50
2019-04-28T05:10:16.607Z,4.83
2019-04-28T05:12:44.870Z,4.10
2019-04-28T05:15:13.218Z,5.17
2019-04-28T05:17:41.485Z,5.27
2019-04-28T05:20:09.943Z,5.97
2019-04-28T05:22:42.497Z,6.57
2019-04-28T05:25:17.224Z,6.10
2019-04-28T05:27:45.499Z,6.80
2019-04-28T05:30:14.156Z,6.30
2019-04-28T05:32:49.422Z,6.67
2019-04-28T05:35:12.476Z,6.63
2019-04-28T05:37:40.730Z,6.60
2019-04-28T05:40:10.449Z,6.67
2019-04-28T05:42:40.617Z,5.87
2019-04-28T05:45:10.386Z,5.50
2019-04-28T05:47:40.634Z,6.97
2019-04-28T05:50:10.730Z,7.30
2019-04-28T05:52:57.267Z,6.90
2019-04-28T05:55:30.595Z,6.83
2019-04-28T05:58:00.448Z,6.57
2019-04-28T06:00:30.354Z,6.53
2019-04-28T06:03:00.711Z,6.90
2019-04-28T06:05:30.127Z,6.70
2019-04-28T06:08:00.645Z,8.13
2019-04-28T06:10:29.915Z,7.07
2019-04-28T06:12:59.720Z,7.20
2019-04-28T06:15:29.486Z,6.80
2019-04-28T06:18:00.006Z,6.90
2019-04-28T06:20:27.954Z,7.90
2019-04-28T06:22:56.231Z,7.27
2019-04-28T06:25:24.514Z,6.87
2019-04-28T06:27:52.870Z,7.40
2019-04-28T06:30:21.237Z,7.30
2019-04-28T06:32:49.507Z,6.60
2019-04-28T06:35:17.881Z,8.23
2019-04-28T06:37:46.234Z,7.50
2019-04-28T06:40:15.019Z,10.07
2019-04-28T06:42:43.299Z,7.30
2019-04-28T06:45:11.587Z,7.17
2019-04-28T06:47:39.882Z,7.57
2019-04-28T06:50:08.208Z,7.20
2019-04-28T06:52:36.484Z,8.30
2019-04-28T06:55:06.272Z,7.70
2019-04-28T06:57:34.623Z,8.37
2019-04-28T07:00:03.269Z,8.33
2019-04-28T07:02:31.529Z,7.33
2019-04-28T07:05:02.221Z,8.13
2019-04-28T07:07:31.453Z,7.87
2019-04-28T07:09:59.721Z,7.50
2019-04-28T07:12:27.988Z,8.23
2019-04-28T07:14:56.355Z,7.20
2019-04-28T07:17:24.634Z,7.87
2019-04-28T07:19:57.216Z,8.20
2019-04-28T07:22:29.863Z,7.23
2019-04-28T07:24:58.093Z,7.90
2019-04-28T07:27:26.386Z,6.17
2019-04-28T07:29:54.645Z,6.90
2019-04-28T07:32:22.916Z,6.70
2019-04-28T07:34:51.173Z,6.50
2019-04-28T07:37:19.460Z,7.00
2019-04-28T07:39:47.721Z,7.53
2019-04-28T07:42:15.995Z,6.30
2019-04-28T07:44:44.248Z,6.97
2019-04-28T07:47:12.535Z,6.27
2019-04-28T07:49:40.796Z,7.00
2019-04-28T07:52:10.729Z,6.60
2019-04-28T07:54:40.156Z,7.13
2019-04-28T07:57:08.648Z,7.80
2019-04-28T07:59:37.811Z,8.40
2019-04-28T08:02:06.145Z,8.27
2019-04-28T08:04:34.407Z,7.80
2019-04-28T08:07:02.714Z,7.30
2019-04-28T08:09:30.967Z,7.90
2019-04-28T08:11:59.239Z,7.97
2019-04-28T08:14:27.531Z,8.77
2019-04-28T08:16:55.793Z,7.87
2019-04-28T08:19:24.053Z,8.13
2019-04-28T08:21:52.399Z,6.73
2019-04-28T08:24:20.663Z,7.00
2019-04-28T08:26:48.920Z,7.37
2019-04-28T08:29:17.220Z,7.33
2019-04-28T08:32:05.481Z,7.10
2019-04-28T08:34:33.835Z,7.33
2019-04-28T08:37:02.089Z,8.37
2019-04-28T08:39:30.362Z,7.50
2019-04-28T08:41:58.650Z,7.83
2019-04-28T08:44:26.944Z,7.10
2019-04-28T08:46:55.202Z,8.33
2019-04-28T08:49:23.469Z,7.33
2019-04-28T08:51:51.738Z,7.70
2019-04-28T08:54:20.035Z,6.87
2019-04-28T08:56:48.291Z,7.00
2019-04-28T08:59:16.556Z,6.50
2019-04-28T09:01:44.893Z,6.40
2019-04-28T09:04:15.435Z,7.10
2019-04-28T09:06:43.191Z,7.63
2019-04-28T09:09:15.768Z,6.73
2019-04-28T09:11:44.084Z,6.33
2019-04-28T09:14:12.353Z,7.17
2019-04-28T09:16:40.629Z,6.57
2019-04-28T09:19:08.876Z,6.23
2019-04-28T09:21:37.131Z,5.63
2019-04-28T09:24:05.413Z,6.53
2019-04-28T09:26:33.703Z,5.97
2019-04-28T09:29:02.021Z,6.40
2019-04-28T09:31:30.296Z,4.70
2019-04-28T09:33:58.553Z,6.47
2019-04-28T09:36:26.832Z,5.83
2019-04-28T09:38:55.382Z,7.00
2019-04-28T09:41:23.657Z,5.60
2019-04-28T09:43:59.512Z,5.57
2019-04-28T09:46:29.405Z,5.80
2019-04-28T09:48:57.691Z,5.70
2019-04-28T09:51:25.940Z,4.37
2019-04-28T09:53:54.240Z,5.20
2019-04-28T09:56:22.509Z,4.07
2019-04-28T09:58:50.779Z,4.47
2019-04-28T10:01:19.051Z,4.97
2019-04-28T10:03:47.331Z,5.50
2019-04-28T10:06:15.604Z,5.30
2019-04-28T10:08:43.887Z,4.70
2019-04-28T10:11:12.132Z,5.00
2019-04-28T10:13:40.446Z,5.27
2019-04-28T10:16:08.735Z,4.30
2019-04-28T10:18:37.027Z,3.83
2019-04-28T10:21:05.348Z,4.30
2019-04-28T10:23:35.269Z,3.90
2019-04-28T10:26:03.608Z,4.47
2019-04-28T10:28:31.878Z,3.90
2019-04-28T10:31:00.164Z,3.93
2019-04-28T10:33:28.463Z,4.87
2019-04-28T10:35:56.700Z,4.53
2019-04-28T10:38:24.969Z,4.63
2019-04-28T10:40:54.893Z,5.60
2019-04-28T10:43:23.232Z,4.77
2019-04-28T10:45:51.680Z,5.00
2019-04-28T10:48:19.992Z,5.03
2019-04-28T10:50:48.334Z,5.00
2019-04-28T10:53:16.619Z,4.70
2019-04-28T10:55:44.948Z,5.30
2019-04-28T10:58:13.220Z,4.60
2019-04-28T11:00:41.925Z,5.10
2019-04-28T11:03:10.204Z,4.80
2019-04-28T11:05:45.238Z,4.60
2019-04-28T11:08:18.115Z,5.30
2019-04-28T11:10:46.367Z,5.10
2019-04-28T11:13:14.904Z,4.20
2019-04-28T11:15:43.169Z,4.10
2019-04-28T11:18:12.795Z,3.60
2019-04-28T11:20:41.109Z,3.57
2019-04-28T11:23:09.414Z,3.20
2019-04-28T11:25:37.764Z,3.20
2019-04-28T11:28:06.482Z,4.20
2019-04-28T11:30:34.762Z,3.67
2019-04-28T11:33:20.855Z,3.67
2019-04-28T11:35:49.969Z,3.80
2019-04-28T11:38:18.253Z,3.83
2019-04-28T11:40:46.554Z,3.87
2019-04-28T11:43:14.798Z,3.70
2019-04-28T11:45:43.084Z,4.27
2019-04-28T11:48:11.344Z,3.20
2019-04-28T11:50:39.618Z,3.40
2019-04-28T11:53:07.897Z,3.03
2019-04-28T11:55:36.415Z,2.87
2019-04-28T11:58:04.994Z,2.87
2019-04-28T12:00:34.931Z,3.07
2019-04-28T12:03:03.303Z,3.20
2019-04-28T12:05:34.548Z,2.77
2019-04-28T12:08:03.343Z,3.73
2019-04-28T12:10:33.335Z,3.13
2019-04-28T12:13:03.272Z,3.10
2019-04-28T12:15:47.929Z,3.33
2019-04-28T12:18:17.840Z,3.77
2019-04-28T12:20:46.123Z,3.50
2019-04-28T12:23:14.488Z,3.77
2019-04-28T12:25:43.529Z,4.47
2019-04-28T12:28:11.835Z,4.50
2019-04-28T12:30:40.163Z,3.47
2019-04-28T12:33:08.428Z,3.83
2019-04-28T12:35:47.135Z,3.50
2019-04-28T12:38:06.689Z,3.20
2019-04-28T12:40:34.987Z,3.17
2019-04-28T12:43:03.259Z,3.33
2019-04-28T12:45:35.156Z,3.53
2019-04-28T12:48:01.613Z,3.57
2019-04-28T12:50:31.518Z,3.67
2019-04-28T12:52:59.786Z,3.87
2019-04-28T12:55:28.043Z,3.50
2019-04-28T12:57:56.323Z,3.87
2019-04-28T13:00:32.031Z,2.70
2019-04-28T13:03:13.688Z,3.20
2019-04-28T13:05:43.761Z,2.97
2019-04-28T13:08:12.111Z,2.60
2019-04-28T13:10:40.364Z,2.60
2019-04-28T13:13:08.653Z,3.00
2019-04-28T13:15:36.914Z,2.77
2019-04-28T13:18:05.548Z,3.33
2019-04-28T13:20:33.833Z,3.33
2019-04-28T13:23:02.098Z,3.20
2019-04-28T13:25:30.368Z,2.40
2019-04-28T13:27:58.626Z,2.30
2019-04-28T13:30:26.920Z,3.03
2019-04-28T13:32:55.196Z,2.43
2019-04-28T13:35:23.578Z,2.27
2019-04-28T13:37:51.881Z,2.17
2019-04-28T13:40:21.790Z,2.30
2019-04-28T13:42:50.080Z,1.63
2019-04-28T13:45:20.119Z,1.73
2019-04-28T13:47:48.346Z,1.90
2019-04-28T13:50:21.481Z,1.77
2019-04-28T13:52:49.733Z,1.80
2019-04-28T13:55:28.733Z,1.60
2019-04-28T13:57:58.807Z,1.43
2019-04-28T14:00:45.159Z,1.60
2019-04-28T14:03:15.069Z,1.80
2019-04-28T14:05:44.982Z,2.70
2019-04-28T14:08:13.248Z,1.87
2019-04-28T14:10:41.564Z,2.03
2019-04-28T14:13:09.827Z,2.13
2019-04-28T14:15:38.109Z,2.17
2019-04-28T14:18:06.389Z,2.00
2019-04-28T14:20:34.659Z,1.80
2019-04-28T14:23:03.090Z,1.30
2019-04-28T14:25:31.339Z,1.23
2019-04-28T14:28:00.836Z,1.50
2019-04-28T14:30:29.111Z,2.10
2019-04-28T14:32:57.443Z,2.40
2019-04-28T14:35:25.648Z,2.27
2019-04-28T14:37:53.949Z,2.13
2019-04-28T14:40:22.304Z,2.60
2019-04-28T14:42:50.562Z,1.77
2019-04-28T14:45:19.136Z,1.70
2019-04-28T14:47:53.989Z,1.93
2019-04-28T14:50:29.417Z,1.57
2019-04-28T14:52:57.952Z,1.73
2019-04-28T14:55:26.211Z,1.50
2019-04-28T14:57:54.485Z,1.60
2019-04-28T15:00:24.523Z,1.87
2019-04-28T15:02:54.436Z,2.57
2019-04-28T15:05:24.918Z,2.40
2019-04-28T15:08:03.730Z,1.83
2019-04-28T15:10:39.199Z,2.47
2019-04-28T15:13:07.502Z,2.70
2019-04-28T15:15:35.844Z,2.40
2019-04-28T15:18:09.069Z,1.80
2019-04-28T15:20:39.217Z,1.70
2019-04-28T15:23:20.914Z,1.63
2019-04-28T15:25:49.226Z,1.50
2019-04-28T15:28:17.497Z,1.70
2019-04-28T15:30:45.857Z,1.53
2019-04-28T15:33:14.120Z,1.70
2019-04-28T15:35:45.072Z,1.77
2019-04-28T15:38:13.374Z,3.00
2019-04-28T15:40:41.666Z,2.87
2019-04-28T15:43:09.964Z,1.80
2019-04-28T15:45:38.252Z,3.30
2019-04-28T15:48:06.645Z,2.37
2019-04-28T15:50:34.920Z,1.90
2019-04-28T15:53:03.254Z,1.60
2019-04-28T15:55:33.153Z,1.90
2019-04-28T15:58:03.084Z,1.80
2019-04-28T16:00:31.355Z,3.03
2019-04-28T16:02:59.627Z,1.40
2019-04-28T16:05:27.879Z,2.03
2019-04-28T16:07:56.167Z,2.03
2019-04-28T16:10:24.464Z,1.60
2019-04-28T16:12:52.734Z,1.77
2019-04-28T16:15:21.016Z,1.67
2019-04-28T16:17:49.292Z,2.10
2019-04-28T16:20:17.782Z,1.77
2019-04-28T16:22:46.069Z,1.43
2019-04-28T16:25:14.357Z,1.30
2019-04-28T16:27:42.667Z,1.60
2019-04-28T16:30:10.946Z,1.40
2019-04-28T16:32:39.205Z,1.20
2019-04-28T16:35:08.327Z,1.23
2019-04-28T16:37:38.929Z,1.80
2019-04-28T16:40:09.544Z,1.60
2019-04-28T16:42:36.818Z,2.10
2019-04-28T16:45:08.680Z,2.00
2019-04-28T16:47:36.936Z,2.00
2019-04-28T16:50:06.905Z,1.70
2019-04-28T16:52:35.258Z,1.60
2019-04-28T16:55:15.223Z,1.50
2019-04-28T16:57:48.240Z,2.20
2019-04-28T17:00:20.941Z,2.00
2019-04-28T17:02:49.254Z,2.73
2019-04-28T17:05:17.551Z,1.97
2019-04-28T17:07:52.453Z,2.07
2019-04-28T17:10:16.076Z,1.73
2019-04-28T17:12:44.329Z,1.63
2019-04-28T17:15:12.865Z,2.57
2019-04-28T17:17:41.189Z,2.30
2019-04-28T17:20:09.482Z,2.13
2019-04-28T17:22:37.741Z,2.27
2019-04-28T17:25:07.100Z,1.70
2019-04-28T17:27:35.344Z,1.90
2019-04-28T17:30:05.157Z,2.90
2019-04-28T17:32:33.453Z,2.40
2019-04-28T17:35:01.737Z,2.60
2019-04-28T17:37:30.009Z,1.90
2019-04-28T17:39:58.285Z,2.13
2019-04-28T17:42:26.535Z,2.23
2019-04-28T17:44:54.833Z,2.03
2019-04-28T17:47:23.674Z,2.17
2019-04-28T17:49:51.967Z,2.13
2019-04-28T17:52:20.316Z,1.97
2019-04-28T17:54:48.605Z,2.47
2019-04-28T17:57:16.882Z,2.17
2019-04-28T17:59:46.132Z,1.70
2019-04-28T18:02:31.113Z,2.00
2019-04-28T18:05:17.419Z,3.27
2019-04-28T18:07:47.524Z,3.10
2019-04-28T18:10:15.966Z,3.03
2019-04-28T18:12:44.248Z,3.17
2019-04-28T18:15:20.005Z,3.27
2019-04-28T18:17:49.943Z,2.47
2019-04-28T18:20:18.200Z,2.40
2019-04-28T18:22:46.475Z,2.00
2019-04-28T18:25:14.795Z,2.00
2019-04-28T18:27:43.057Z,2.00
2019-04-28T18:30:13.101Z,1.77
2019-04-28T18:32:43.019Z,1.73
2019-04-28T18:35:12.918Z,1.60
2019-04-28T18:37:59.298Z,1.73
2019-04-28T18:40:32.215Z,1.80
2019-04-28T18:43:05.092Z,1.60
2019-04-28T18:45:33.374Z,2.10
2019-04-28T18:48:01.648Z,2.20
2019-04-28T18:50:29.912Z,2.00
2019-04-28T18:52:58.212Z,2.30
2019-04-28T18:55:26.489Z,1.30
2019-04-28T18:57:54.767Z,1.57
2019-04-28T19:00:24.654Z,1.20
2019-04-28T19:02:52.976Z,1.70
2019-04-28T19:05:22.852Z,1.20
2019-04-28T19:07:55.721Z,1.30
2019-04-28T19:10:25.654Z,1.50
2019-04-28T19:12:58.458Z,1.40
2019-04-28T19:15:28.443Z,1.20
2019-04-28T19:18:14.735Z,1.40
2019-04-28T19:20:43.085Z,1.50
2019-04-28T19:23:11.348Z,1.20
2019-04-28T19:25:39.684Z,1.50
2019-04-28T19:28:07.977Z,1.60
2019-04-28T19:30:36.247Z,2.40
2019-04-28T19:33:04.512Z,3.17
2019-04-28T19:35:32.795Z,3.10
2019-04-28T19:38:01.086Z,3.07
2019-04-28T19:40:29.344Z,2.30
2019-04-28T19:42:57.608Z,2.67
2019-04-28T19:45:25.877Z,2.13
2019-04-28T19:47:54.204Z,2.50
2019-04-28T19:50:22.479Z,2.20
2019-04-28T19:52:50.737Z,2.30
2019-04-28T19:55:20.652Z,2.13
2019-04-28T19:57:56.544Z,2.20
2019-04-28T20:00:26.512Z,2.10
2019-04-28T20:02:54.803Z,2.30
2019-04-28T20:05:23.062Z,2.60
2019-04-28T20:07:51.341Z,2.00
2019-04-28T20:10:19.616Z,2.90
2019-04-28T20:12:47.892Z,4.60
2019-04-28T20:15:16.237Z,4.90
2019-04-28T20:17:44.497Z,3.03
2019-04-28T20:20:12.837Z,3.30
2019-04-28T20:22:41.311Z,3.30
2019-04-28T20:25:09.936Z,4.30
2019-04-28T20:27:38.273Z,4.10
2019-04-28T20:52:51.931Z,3.57
2019-04-28T20:55:20.199Z,2.97
2019-04-28T20:57:48.474Z,3.30
2019-04-28T21:00:18.294Z,2.77
2019-04-28T21:02:46.554Z,2.70
2019-04-28T21:05:14.844Z,3.10
2019-04-28T21:07:43.253Z,2.80
2019-04-28T21:10:11.657Z,3.10
2019-04-28T21:12:40.036Z,3.37
2019-04-28T21:15:08.422Z,3.10
2019-04-28T21:17:36.727Z,2.90
2019-04-28T21:20:06.501Z,2.80
2019-04-28T21:22:34.778Z,3.30
2019-04-28T21:25:03.815Z,2.83
2019-04-28T21:27:32.082Z,2.93
2019-04-28T21:30:00.378Z,2.90
2019-04-28T21:32:28.682Z,3.23
2019-04-28T21:34:56.941Z,4.10
2019-04-28T21:37:25.439Z,3.37
2019-04-28T21:39:53.695Z,2.80
2019-04-28T21:42:23.599Z,3.10
2019-04-28T21:44:58.978Z,4.10
2019-04-28T21:47:31.816Z,3.00
2019-04-28T21:50:00.090Z,3.00
2019-04-28T21:52:28.368Z,3.13
2019-04-28T21:54:56.637Z,3.20
2019-04-28T21:57:24.907Z,3.10
2019-04-28T21:59:53.168Z,3.43
2019-04-28T22:02:21.523Z,3.50
2019-04-28T22:04:49.789Z,2.93
2019-04-28T22:07:18.043Z,3.33
2019-04-28T22:09:46.318Z,4.00
2019-04-28T22:12:14.590Z,3.90
2019-04-28T22:14:42.857Z,3.80
2019-04-28T22:17:11.121Z,3.70
2019-04-28T22:19:39.376Z,3.70
2019-04-28T22:22:07.784Z,3.53
2019-04-28T22:24:55.661Z,3.33
2019-04-28T22:27:25.573Z,3.00
2019-04-28T22:29:53.847Z,2.60
2019-04-28T22:32:22.107Z,3.23
2019-04-28T22:34:50.413Z,3.07
2019-04-28T22:37:18.675Z,3.10
2019-04-28T22:39:47.246Z,2.70
2019-04-28T22:42:15.560Z,3.17
2019-04-28T22:44:43.824Z,2.60
2019-04-28T22:47:12.102Z,2.90
2019-04-28T22:49:40.345Z,2.53
2019-04-28T22:52:08.599Z,2.97
2019-04-28T22:54:41.270Z,2.80
2019-04-28T22:57:17.049Z,2.80
2019-04-28T22:59:46.941Z,2.73
2019-04-28T23:02:16.851Z,3.17
2019-04-28T23:04:46.822Z,3.30
2019-04-28T23:07:15.931Z,2.87
2019-04-28T23:09:44.196Z,3.00
2019-04-28T23:12:12.461Z,2.80
2019-04-28T23:14:40.734Z,3.20
2019-04-28T23:17:10.612Z,3.10
2019-04-28T23:19:43.243Z,3.70
2019-04-28T23:22:13.323Z,2.80
2019-04-28T23:24:41.807Z,3.50
2019-04-28T23:27:10.073Z,3.10
2019-04-28T23:29:38.339Z,3.50
2019-04-28T23:32:06.865Z,3.87
2019-04-28T23:34:35.128Z,3.10
2019-04-28T23:37:03.445Z,3.80
2019-04-28T23:39:31.787Z,3.17
2019-04-28T23:42:04.516Z,3.77
2019-04-28T23:44:32.794Z,3.10
2019-04-28T23:47:02.227Z,3.60
2019-04-28T23:49:30.929Z,3.27
2019-04-28T23:52:17.367Z,3.80
2019-04-28T23:54:53.089Z,3.37
2019-04-28T23:57:21.337Z,3.53
2019-04-28T23:59:49.611Z,3.80
